sensor_id;sensor_type;location;lat;lon;timestamp;pressure;altitude;pressure_sealevel;temperature;humidity
64453;BME280;50813;52.654;6.766;2023-05-15T00:01:18;101387.0;;;13.2;98.96
64453;BME280;50813;52.654;6.766;2023-05-15T00:04:30;101382.0;;;12.94;100.0
64453;BME280;50813;52.654;6.766;2023-05-15T00:06:06;101382.0;;;13.11;99.98
64453;BME280;50813;52.654;6.766;2023-05-15T00:07:42;101376.0;;;13.14;99.54
64453;BME280;50813;52.654;6.766;2023-05-15T00:10:55;101375.0;;;13.11;99.78
64453;BME280;50813;52.654;6.766;2023-05-15T00:12:31;101375.0;;;12.98;100.0
64453;BME280;50813;52.654;6.766;2023-05-15T00:14:07;101370.0;;;13.01;100.0
64453;BME280;50813;52.654;6.766;2023-05-15T00:15:43;101369.0;;;12.75;100.0
64453;BME280;50813;52.654;6.766;2023-05-15T00:18:55;101372.0;;;12.83;100.0
64453;BME280;50813;52.654;6.766;2023-05-15T00:20:31;101373.0;;;13.06;100.0
64453;BME280;50813;52.654;6.766;2023-05-15T00:22:08;101381.0;;;12.81;100.0
64453;BME280;50813;52.654;6.766;2023-05-15T00:25:20;101382.0;;;12.71;100.0
64453;BME280;50813;52.654;6.766;2023-05-15T00:26:57;101387.0;;;12.89;100.0
64453;BME280;50813;52.654;6.766;2023-05-15T00:28:35;101387.0;;;12.81;100.0
64453;BME280;50813;52.654;6.766;2023-05-15T00:31:48;101387.0;;;12.82;100.0
64453;BME280;50813;52.654;6.766;2023-05-15T00:33:24;101384.0;;;13.03;100.0
64453;BME280;50813;52.654;6.766;2023-05-15T00:35:01;101382.0;;;12.97;100.0
64453;BME280;50813;52.654;6.766;2023-05-15T00:36:37;101381.0;;;12.97;100.0
64453;BME280;50813;52.654;6.766;2023-05-15T00:39:49;101377.0;;;12.85;100.0
64453;BME280;50813;52.654;6.766;2023-05-15T00:41:26;101378.0;;;13.09;100.0
64453;BME280;50813;52.654;6.766;2023-05-15T00:43:04;101377.0;;;12.93;100.0
64453;BME280;50813;52.654;6.766;2023-05-15T00:46:20;101369.0;;;12.72;100.0
64453;BME280;50813;52.654;6.766;2023-05-15T00:47:59;101373.0;;;12.86;100.0
64453;BME280;50813;52.654;6.766;2023-05-15T00:49:36;101371.0;;;12.93;100.0
64453;BME280;50813;52.654;6.766;2023-05-15T00:52:49;101377.0;;;12.8;100.0
64453;BME280;50813;52.654;6.766;2023-05-15T00:54:25;101371.0;;;12.83;100.0
64453;BME280;50813;52.654;6.766;2023-05-15T00:56:02;101371.0;;;12.72;100.0
64453;BME280;50813;52.654;6.766;2023-05-15T00:57:42;101371.0;;;12.8;100.0
64453;BME280;50813;52.654;6.766;2023-05-15T01:00:57;101370.0;;;12.65;100.0
64453;BME280;50813;52.654;6.766;2023-05-15T01:02:33;101370.0;;;12.58;100.0
64453;BME280;50813;52.654;6.766;2023-05-15T01:04:10;101367.0;;;12.63;100.0
64453;BME280;50813;52.654;6.766;2023-05-15T01:07:21;101369.0;;;12.81;100.0
64453;BME280;50813;52.654;6.766;2023-05-15T01:08:59;101368.0;;;12.78;100.0
64453;BME280;50813;52.654;6.766;2023-05-15T01:10:36;101369.0;;;12.9;100.0
64453;BME280;50813;52.654;6.766;2023-05-15T01:12:14;101370.0;;;12.85;100.0
64453;BME280;50813;52.654;6.766;2023-05-15T01:15:26;101374.0;;;12.62;100.0
64453;BME280;50813;52.654;6.766;2023-05-15T01:17:02;101370.0;;;12.51;100.0
64453;BME280;50813;52.654;6.766;2023-05-15T01:18:38;101368.0;;;12.64;100.0
64453;BME280;50813;52.654;6.766;2023-05-15T01:23:05;101366.0;;;12.52;100.0
64453;BME280;50813;52.654;6.766;2023-05-15T01:25:01;101362.0;;;12.37;100.0
64453;BME280;50813;52.654;6.766;2023-05-15T01:28:26;101363.0;;;12.7;100.0
64453;BME280;50813;52.654;6.766;2023-05-15T01:30:11;101363.0;;;12.65;100.0
64453;BME280;50813;52.654;6.766;2023-05-15T01:31:53;101359.0;;;12.74;100.0
64453;BME280;50813;52.654;6.766;2023-05-15T01:33:38;101357.0;;;12.64;100.0
64453;BME280;50813;52.654;6.766;2023-05-15T01:35:20;101359.0;;;12.74;100.0
64453;BME280;50813;52.654;6.766;2023-05-15T01:38:45;101359.0;;;12.72;100.0
64453;BME280;50813;52.654;6.766;2023-05-15T01:40:24;101358.0;;;12.52;100.0
64453;BME280;50813;52.654;6.766;2023-05-15T01:42:06;101366.0;;;12.58;100.0
64453;BME280;50813;52.654;6.766;2023-05-15T01:43:44;101369.0;;;12.72;100.0
64453;BME280;50813;52.654;6.766;2023-05-15T01:47:06;101370.0;;;12.57;100.0
64453;BME280;50813;52.654;6.766;2023-05-15T01:48:44;101368.0;;;12.74;100.0
64453;BME280;50813;52.654;6.766;2023-05-15T01:50:25;101369.0;;;12.8;100.0
64453;BME280;50813;52.654;6.766;2023-05-15T01:52:05;101372.0;;;12.84;100.0
64453;BME280;50813;52.654;6.766;2023-05-15T01:55:24;101369.0;;;13.0;100.0
64453;BME280;50813;52.654;6.766;2023-05-15T01:57:01;101369.0;;;12.76;100.0
64453;BME280;50813;52.654;6.766;2023-05-15T01:58:38;101371.0;;;12.8;100.0
64453;BME280;50813;52.654;6.766;2023-05-15T02:01:54;101372.0;;;12.88;100.0
64453;BME280;50813;52.654;6.766;2023-05-15T02:03:32;101367.0;;;12.74;100.0
64453;BME280;50813;52.654;6.766;2023-05-15T02:05:10;101375.0;;;12.77;100.0
64453;BME280;50813;52.654;6.766;2023-05-15T02:06:48;101375.0;;;12.66;100.0
64453;BME280;50813;52.654;6.766;2023-05-15T02:10:03;101367.0;;;12.51;100.0
64453;BME280;50813;52.654;6.766;2023-05-15T02:11:41;101366.0;;;12.41;100.0
64453;BME280;50813;52.654;6.766;2023-05-15T02:13:17;101366.0;;;12.54;100.0
64453;BME280;50813;52.654;6.766;2023-05-15T02:16:33;101356.0;;;12.45;100.0
64453;BME280;50813;52.654;6.766;2023-05-15T02:18:09;101352.0;;;12.32;100.0
64453;BME280;50813;52.654;6.766;2023-05-15T02:19:45;101355.0;;;12.25;100.0
64453;BME280;50813;52.654;6.766;2023-05-15T02:21:21;101355.0;;;12.34;100.0
64453;BME280;50813;52.654;6.766;2023-05-15T02:24:34;101358.0;;;12.25;100.0
64453;BME280;50813;52.654;6.766;2023-05-15T02:28:19;101356.0;;;12.16;100.0
64453;BME280;50813;52.654;6.766;2023-05-15T02:30:10;101355.0;;;12.16;100.0
64453;BME280;50813;52.654;6.766;2023-05-15T02:31:59;101358.0;;;12.07;100.0
64453;BME280;50813;52.654;6.766;2023-05-15T02:35:30;101359.0;;;12.07;100.0
64453;BME280;50813;52.654;6.766;2023-05-15T02:37:13;101359.0;;;12.17;100.0
64453;BME280;50813;52.654;6.766;2023-05-15T02:38:57;101361.0;;;12.13;100.0
64453;BME280;50813;52.654;6.766;2023-05-15T02:40:35;101353.0;;;12.08;100.0
64453;BME280;50813;52.654;6.766;2023-05-15T02:42:13;101353.0;;;12.11;100.0
64453;BME280;50813;52.654;6.766;2023-05-15T02:45:28;101351.0;;;12.18;100.0
64453;BME280;50813;52.654;6.766;2023-05-15T02:47:05;101346.0;;;11.97;100.0
64453;BME280;50813;52.654;6.766;2023-05-15T02:48:43;101344.0;;;11.74;100.0
64453;BME280;50813;52.654;6.766;2023-05-15T02:51:56;101341.0;;;11.86;100.0
64453;BME280;50813;52.654;6.766;2023-05-15T02:55:13;101346.0;;;11.58;100.0
64453;BME280;50813;52.654;6.766;2023-05-15T02:56:49;101342.0;;;11.55;100.0
64453;BME280;50813;52.654;6.766;2023-05-15T03:00:02;101344.0;;;11.29;100.0
64453;BME280;50813;52.654;6.766;2023-05-15T03:01:40;101335.0;;;11.79;100.0
64453;BME280;50813;52.654;6.766;2023-05-15T03:03:16;101330.0;;;11.9;100.0
64453;BME280;50813;52.654;6.766;2023-05-15T03:06:28;101336.0;;;11.62;100.0
64453;BME280;50813;52.654;6.766;2023-05-15T03:08:04;101337.0;;;11.52;100.0
64453;BME280;50813;52.654;6.766;2023-05-15T03:09:40;101331.0;;;11.6;100.0
64453;BME280;50813;52.654;6.766;2023-05-15T03:12:54;101330.0;;;11.72;100.0
64453;BME280;50813;52.654;6.766;2023-05-15T03:14:31;101325.0;;;11.63;100.0
64453;BME280;50813;52.654;6.766;2023-05-15T03:16:07;101320.0;;;11.82;100.0
64453;BME280;50813;52.654;6.766;2023-05-15T03:17:43;101324.0;;;11.66;100.0
64453;BME280;50813;52.654;6.766;2023-05-15T03:20:55;101322.0;;;11.62;100.0
64453;BME280;50813;52.654;6.766;2023-05-15T03:22:31;101318.0;;;11.72;100.0
64453;BME280;50813;52.654;6.766;2023-05-15T03:24:07;101321.0;;;11.78;100.0
64453;BME280;50813;52.654;6.766;2023-05-15T03:27:20;101317.0;;;11.78;100.0
64453;BME280;50813;52.654;6.766;2023-05-15T03:28:56;101320.0;;;11.74;100.0
64453;BME280;50813;52.654;6.766;2023-05-15T03:30:33;101322.0;;;11.81;100.0
64453;BME280;50813;52.654;6.766;2023-05-15T03:33:45;101324.0;;;11.85;100.0
64453;BME280;50813;52.654;6.766;2023-05-15T03:35:22;101321.0;;;11.88;100.0
64453;BME280;50813;52.654;6.766;2023-05-15T03:36:57;101324.0;;;11.88;100.0
64453;BME280;50813;52.654;6.766;2023-05-15T03:40:11;101325.0;;;12.09;100.0
64453;BME280;50813;52.654;6.766;2023-05-15T03:41:47;101323.0;;;12.09;100.0
64453;BME280;50813;52.654;6.766;2023-05-15T03:43:23;101327.0;;;11.99;100.0
64453;BME280;50813;52.654;6.766;2023-05-15T03:44:59;101330.0;;;12.03;100.0
64453;BME280;50813;52.654;6.766;2023-05-15T03:48:11;101334.0;;;11.98;100.0
64453;BME280;50813;52.654;6.766;2023-05-15T03:49:48;101338.0;;;12.16;100.0
64453;BME280;50813;52.654;6.766;2023-05-15T03:51:24;101338.0;;;12.16;100.0
64453;BME280;50813;52.654;6.766;2023-05-15T03:54:36;101336.0;;;12.15;100.0
64453;BME280;50813;52.654;6.766;2023-05-15T03:56:12;101331.0;;;12.22;100.0
64453;BME280;50813;52.654;6.766;2023-05-15T03:57:48;101326.0;;;12.29;100.0
64453;BME280;50813;52.654;6.766;2023-05-15T04:01:01;101330.0;;;12.24;100.0
64453;BME280;50813;52.654;6.766;2023-05-15T04:02:37;101321.0;;;12.17;100.0
64453;BME280;50813;52.654;6.766;2023-05-15T04:04:13;101317.0;;;11.97;100.0
64453;BME280;50813;52.654;6.766;2023-05-15T04:05:49;101319.0;;;12.02;100.0
64453;BME280;50813;52.654;6.766;2023-05-15T04:09:01;101318.0;;;11.97;100.0
64453;BME280;50813;52.654;6.766;2023-05-15T04:10:37;101326.0;;;11.91;100.0
64453;BME280;50813;52.654;6.766;2023-05-15T04:12:13;101332.0;;;11.7;100.0
64453;BME280;50813;52.654;6.766;2023-05-15T04:15:26;101338.0;;;11.72;100.0
64453;BME280;50813;52.654;6.766;2023-05-15T04:17:02;101342.0;;;11.73;100.0
64453;BME280;50813;52.654;6.766;2023-05-15T04:18:38;101336.0;;;11.73;100.0
64453;BME280;50813;52.654;6.766;2023-05-15T04:21:53;101341.0;;;11.58;100.0
64453;BME280;50813;52.654;6.766;2023-05-15T04:23:29;101336.0;;;11.53;100.0
64453;BME280;50813;52.654;6.766;2023-05-15T04:25:07;101336.0;;;11.44;100.0
64453;BME280;50813;52.654;6.766;2023-05-15T04:28:19;101331.0;;;11.6;100.0
64453;BME280;50813;52.654;6.766;2023-05-15T04:29:55;101333.0;;;11.66;100.0
64453;BME280;50813;52.654;6.766;2023-05-15T04:31:33;101332.0;;;11.86;100.0
64453;BME280;50813;52.654;6.766;2023-05-15T04:33:09;101333.0;;;11.77;100.0
64453;BME280;50813;52.654;6.766;2023-05-15T04:40:15;101341.0;;;11.67;100.0
64453;BME280;50813;52.654;6.766;2023-05-15T04:41:51;101330.0;;;11.74;100.0
64453;BME280;50813;52.654;6.766;2023-05-15T04:45:04;101342.0;;;11.35;100.0
64453;BME280;50813;52.654;6.766;2023-05-15T04:46:41;101339.0;;;11.56;100.0
64453;BME280;50813;52.654;6.766;2023-05-15T04:48:17;101341.0;;;11.3;100.0
64453;BME280;50813;52.654;6.766;2023-05-15T04:49:53;101341.0;;;11.46;100.0
64453;BME280;50813;52.654;6.766;2023-05-15T04:53:05;101339.0;;;11.25;100.0
64453;BME280;50813;52.654;6.766;2023-05-15T04:54:42;101341.0;;;11.47;100.0
64453;BME280;50813;52.654;6.766;2023-05-15T04:56:18;101340.0;;;11.11;100.0
64453;BME280;50813;52.654;6.766;2023-05-15T04:59:30;101337.0;;;11.19;100.0
64453;BME280;50813;52.654;6.766;2023-05-15T05:01:06;101337.0;;;11.33;100.0
64453;BME280;50813;52.654;6.766;2023-05-15T05:02:42;101342.0;;;11.19;100.0
64453;BME280;50813;52.654;6.766;2023-05-15T05:05:55;101343.0;;;11.27;100.0
64453;BME280;50813;52.654;6.766;2023-05-15T05:07:31;101344.0;;;11.48;100.0
64453;BME280;50813;52.654;6.766;2023-05-15T05:09:07;101346.0;;;11.45;100.0
64453;BME280;50813;52.654;6.766;2023-05-15T05:10:43;101348.0;;;11.55;100.0
64453;BME280;50813;52.654;6.766;2023-05-15T05:13:55;101353.0;;;11.5;100.0
64453;BME280;50813;52.654;6.766;2023-05-15T05:15:32;101355.0;;;11.28;100.0
64453;BME280;50813;52.654;6.766;2023-05-15T05:17:08;101352.0;;;11.33;100.0
64453;BME280;50813;52.654;6.766;2023-05-15T05:20:21;101352.0;;;11.28;100.0
64453;BME280;50813;52.654;6.766;2023-05-15T05:21:57;101352.0;;;11.08;100.0
64453;BME280;50813;52.654;6.766;2023-05-15T05:23:33;101349.0;;;11.25;100.0
64453;BME280;50813;52.654;6.766;2023-05-15T05:26:46;101356.0;;;11.3;100.0
64453;BME280;50813;52.654;6.766;2023-05-15T05:28:23;101351.0;;;11.28;100.0
64453;BME280;50813;52.654;6.766;2023-05-15T05:29:59;101352.0;;;10.92;100.0
64453;BME280;50813;52.654;6.766;2023-05-15T05:31:35;101350.0;;;11.21;100.0
64453;BME280;50813;52.654;6.766;2023-05-15T05:34:47;101346.0;;;11.35;100.0
64453;BME280;50813;52.654;6.766;2023-05-15T05:36:23;101340.0;;;11.56;100.0
64453;BME280;50813;52.654;6.766;2023-05-15T05:37:59;101339.0;;;11.61;100.0
64453;BME280;50813;52.654;6.766;2023-05-15T05:41:11;101341.0;;;11.78;100.0
64453;BME280;50813;52.654;6.766;2023-05-15T05:42:47;101345.0;;;11.71;100.0
64453;BME280;50813;52.654;6.766;2023-05-15T05:44:23;101348.0;;;11.68;100.0
64453;BME280;50813;52.654;6.766;2023-05-15T05:47:36;101346.0;;;11.88;100.0
64453;BME280;50813;52.654;6.766;2023-05-15T05:49:13;101351.0;;;11.81;100.0
64453;BME280;50813;52.654;6.766;2023-05-15T05:50:49;101345.0;;;11.61;100.0
64453;BME280;50813;52.654;6.766;2023-05-15T05:54:01;101347.0;;;11.92;100.0
64453;BME280;50813;52.654;6.766;2023-05-15T05:55:37;101349.0;;;11.97;100.0
64453;BME280;50813;52.654;6.766;2023-05-15T05:57:13;101359.0;;;11.87;100.0
64453;BME280;50813;52.654;6.766;2023-05-15T05:58:49;101364.0;;;11.64;100.0
64453;BME280;50813;52.654;6.766;2023-05-15T06:02:02;101366.0;;;11.74;100.0
64453;BME280;50813;52.654;6.766;2023-05-15T06:03:41;101367.0;;;11.94;100.0
64453;BME280;50813;52.654;6.766;2023-05-15T06:05:17;101359.0;;;11.99;100.0
64453;BME280;50813;52.654;6.766;2023-05-15T06:08:28;101367.0;;;11.91;100.0
64453;BME280;50813;52.654;6.766;2023-05-15T06:10:05;101375.0;;;11.91;100.0
64453;BME280;50813;52.654;6.766;2023-05-15T06:11:41;101374.0;;;11.95;100.0
64453;BME280;50813;52.654;6.766;2023-05-15T06:14:54;101378.0;;;11.69;100.0
64453;BME280;50813;52.654;6.766;2023-05-15T06:16:29;101373.0;;;11.59;100.0
64453;BME280;50813;52.654;6.766;2023-05-15T06:18:05;101378.0;;;11.49;100.0
64453;BME280;50813;52.654;6.766;2023-05-15T06:21:17;101380.0;;;11.52;100.0
64453;BME280;50813;52.654;6.766;2023-05-15T06:22:53;101374.0;;;11.74;100.0
64453;BME280;50813;52.654;6.766;2023-05-15T06:24:30;101373.0;;;11.81;100.0
64453;BME280;50813;52.654;6.766;2023-05-15T06:26:05;101377.0;;;11.87;100.0
64453;BME280;50813;52.654;6.766;2023-05-15T06:29:18;101374.0;;;12.01;100.0
64453;BME280;50813;52.654;6.766;2023-05-15T06:30:54;101373.0;;;11.7;100.0
64453;BME280;50813;52.654;6.766;2023-05-15T06:32:30;101377.0;;;11.71;100.0
64453;BME280;50813;52.654;6.766;2023-05-15T06:35:42;101380.0;;;11.93;100.0
64453;BME280;50813;52.654;6.766;2023-05-15T06:37:19;101376.0;;;11.96;100.0
64453;BME280;50813;52.654;6.766;2023-05-15T06:38:55;101380.0;;;11.9;100.0
64453;BME280;50813;52.654;6.766;2023-05-15T06:42:07;101370.0;;;11.95;100.0
64453;BME280;50813;52.654;6.766;2023-05-15T06:43:43;101365.0;;;11.96;100.0
64453;BME280;50813;52.654;6.766;2023-05-15T06:45:20;101363.0;;;12.12;100.0
64453;BME280;50813;52.654;6.766;2023-05-15T06:46:56;101361.0;;;12.3;100.0
64453;BME280;50813;52.654;6.766;2023-05-15T06:50:09;101363.0;;;12.24;99.27
64453;BME280;50813;52.654;6.766;2023-05-15T06:51:45;101357.0;;;12.35;97.67
64453;BME280;50813;52.654;6.766;2023-05-15T06:53:22;101362.0;;;12.17;97.74
64453;BME280;50813;52.654;6.766;2023-05-15T06:56:34;101362.0;;;12.18;97.98
64453;BME280;50813;52.654;6.766;2023-05-15T06:58:10;101359.0;;;12.26;96.63
64453;BME280;50813;52.654;6.766;2023-05-15T06:59:47;101349.0;;;12.39;95.25
64453;BME280;50813;52.654;6.766;2023-05-15T07:02:59;101360.0;;;12.48;95.75
64453;BME280;50813;52.654;6.766;2023-05-15T07:04:35;101359.0;;;12.26;93.47
64453;BME280;50813;52.654;6.766;2023-05-15T07:06:11;101355.0;;;12.64;93.43
64453;BME280;50813;52.654;6.766;2023-05-15T07:09:24;101357.0;;;12.92;93.27
64453;BME280;50813;52.654;6.766;2023-05-15T07:11:00;101352.0;;;12.78;92.2
64453;BME280;50813;52.654;6.766;2023-05-15T07:12:36;101352.0;;;12.83;90.89
64453;BME280;50813;52.654;6.766;2023-05-15T07:14:12;101357.0;;;13.24;91.29
64453;BME280;50813;52.654;6.766;2023-05-15T07:17:25;101355.0;;;13.39;90.91
64453;BME280;50813;52.654;6.766;2023-05-15T07:19:01;101349.0;;;13.71;91.83
64453;BME280;50813;52.654;6.766;2023-05-15T07:20:37;101348.0;;;13.84;88.84
64453;BME280;50813;52.654;6.766;2023-05-15T07:23:51;101348.0;;;13.99;87.07
64453;BME280;50813;52.654;6.766;2023-05-15T07:25:28;101345.0;;;14.15;87.05
64453;BME280;50813;52.654;6.766;2023-05-15T07:27:04;101342.0;;;14.12;85.66
64453;BME280;50813;52.654;6.766;2023-05-15T07:30:17;101344.0;;;14.47;83.77
64453;BME280;50813;52.654;6.766;2023-05-15T07:31:54;101345.0;;;14.3;82.89
64453;BME280;50813;52.654;6.766;2023-05-15T07:33:30;101343.0;;;14.57;82.16
64453;BME280;50813;52.654;6.766;2023-05-15T07:35:06;101341.0;;;14.68;83.14
64453;BME280;50813;52.654;6.766;2023-05-15T07:38:18;101341.0;;;15.13;81.11
64453;BME280;50813;52.654;6.766;2023-05-15T07:39:54;101345.0;;;15.17;80.31
64453;BME280;50813;52.654;6.766;2023-05-15T07:41:31;101344.0;;;14.93;78.91
64453;BME280;50813;52.654;6.766;2023-05-15T07:44:44;101341.0;;;15.33;78.09
64453;BME280;50813;52.654;6.766;2023-05-15T07:47:56;101344.0;;;15.27;75.99
64453;BME280;50813;52.654;6.766;2023-05-15T07:51:08;101341.0;;;15.47;77.53
64453;BME280;50813;52.654;6.766;2023-05-15T07:52:45;101345.0;;;15.47;79.03
64453;BME280;50813;52.654;6.766;2023-05-15T07:54:21;101349.0;;;15.33;79.52
64453;BME280;50813;52.654;6.766;2023-05-15T07:55:57;101347.0;;;15.64;78.53
64453;BME280;50813;52.654;6.766;2023-05-15T07:59:09;101342.0;;;15.32;78.02
64453;BME280;50813;52.654;6.766;2023-05-15T08:00:45;101339.0;;;16.02;76.59
64453;BME280;50813;52.654;6.766;2023-05-15T08:02:21;101343.0;;;15.97;76.47
64453;BME280;50813;52.654;6.766;2023-05-15T08:05:34;101345.0;;;16.34;77.27
64453;BME280;50813;52.654;6.766;2023-05-15T08:07:12;101342.0;;;16.45;76.72
64453;BME280;50813;52.654;6.766;2023-05-15T08:08:48;101343.0;;;16.45;76.83
64453;BME280;50813;52.654;6.766;2023-05-15T08:12:17;101339.0;;;15.95;76.09
64453;BME280;50813;52.654;6.766;2023-05-15T08:13:53;101340.0;;;16.39;73.97
64453;BME280;50813;52.654;6.766;2023-05-15T08:15:30;101344.0;;;16.5;73.8
64453;BME280;50813;52.654;6.766;2023-05-15T08:17:06;101333.0;;;16.34;71.47
64453;BME280;50813;52.654;6.766;2023-05-15T08:20:18;101338.0;;;16.91;71.27
64453;BME280;50813;52.654;6.766;2023-05-15T08:21:54;101339.0;;;17.0;73.75
64453;BME280;50813;52.654;6.766;2023-05-15T08:23:30;101340.0;;;16.75;71.59
64453;BME280;50813;52.654;6.766;2023-05-15T08:26:44;101340.0;;;16.8;72.39
64453;BME280;50813;52.654;6.766;2023-05-15T08:28:20;101338.0;;;16.86;71.49
64453;BME280;50813;52.654;6.766;2023-05-15T08:29:56;101337.0;;;17.43;71.38
64453;BME280;50813;52.654;6.766;2023-05-15T08:31:32;101335.0;;;17.27;67.55
64453;BME280;50813;52.654;6.766;2023-05-15T08:34:45;101333.0;;;17.54;69.48
64453;BME280;50813;52.654;6.766;2023-05-15T08:36:21;101330.0;;;17.57;69.47
64453;BME280;50813;52.654;6.766;2023-05-15T08:37:57;101330.0;;;17.36;72.0
64453;BME280;50813;52.654;6.766;2023-05-15T08:41:13;101324.0;;;17.41;70.98
64453;BME280;50813;52.654;6.766;2023-05-15T08:43:02;101328.0;;;17.36;70.3
64453;BME280;50813;52.654;6.766;2023-05-15T08:44:37;101325.0;;;17.3;68.48
64453;BME280;50813;52.654;6.766;2023-05-15T08:46:15;101318.0;;;17.36;70.77
64453;BME280;50813;52.654;6.766;2023-05-15T08:49:34;101322.0;;;17.55;71.94
64453;BME280;50813;52.654;6.766;2023-05-15T08:51:18;101319.0;;;17.68;69.22
64453;BME280;50813;52.654;6.766;2023-05-15T08:52:55;101318.0;;;17.89;71.61
64453;BME280;50813;52.654;6.766;2023-05-15T08:54:32;101316.0;;;17.8;69.98
64453;BME280;50813;52.654;6.766;2023-05-15T08:57:46;101316.0;;;17.84;67.49
64453;BME280;50813;52.654;6.766;2023-05-15T08:59:23;101318.0;;;18.0;68.36
64453;BME280;50813;52.654;6.766;2023-05-15T09:00:59;101316.0;;;18.5;64.53
64453;BME280;50813;52.654;6.766;2023-05-15T09:04:12;101317.0;;;18.59;67.64
64453;BME280;50813;52.654;6.766;2023-05-15T09:05:50;101316.0;;;18.39;67.3
64453;BME280;50813;52.654;6.766;2023-05-15T09:07:28;101311.0;;;18.28;66.44
64453;BME280;50813;52.654;6.766;2023-05-15T09:10:44;101310.0;;;18.34;66.33
64453;BME280;50813;52.654;6.766;2023-05-15T09:12:23;101307.0;;;18.68;63.39
64453;BME280;50813;52.654;6.766;2023-05-15T09:14:00;101305.0;;;18.39;63.68
64453;BME280;50813;52.654;6.766;2023-05-15T09:15:36;101305.0;;;18.63;64.6
64453;BME280;50813;52.654;6.766;2023-05-15T09:18:50;101305.0;;;18.55;65.05
64453;BME280;50813;52.654;6.766;2023-05-15T09:20:29;101307.0;;;18.66;65.55
64453;BME280;50813;52.654;6.766;2023-05-15T09:22:15;101305.0;;;18.87;65.78
64453;BME280;50813;52.654;6.766;2023-05-15T09:23:54;101305.0;;;19.16;63.36
64453;BME280;50813;52.654;6.766;2023-05-15T09:27:11;101307.0;;;19.21;62.82
64453;BME280;50813;52.654;6.766;2023-05-15T09:28:47;101303.0;;;19.43;66.95
64453;BME280;50813;52.654;6.766;2023-05-15T09:30:25;101301.0;;;19.75;66.24
64453;BME280;50813;52.654;6.766;2023-05-15T09:33:40;101306.0;;;19.89;60.67
64453;BME280;50813;52.654;6.766;2023-05-15T09:35:32;101299.0;;;19.98;57.25
64453;BME280;50813;52.654;6.766;2023-05-15T09:37:11;101295.0;;;19.84;58.46
64453;BME280;50813;52.654;6.766;2023-05-15T09:39:03;101299.0;;;19.45;60.24
64453;BME280;50813;52.654;6.766;2023-05-15T09:40:39;101297.0;;;19.95;59.74
64453;BME280;50813;52.654;6.766;2023-05-15T09:43:52;101301.0;;;19.75;59.03
64453;BME280;50813;52.654;6.766;2023-05-15T09:45:29;101298.0;;;19.66;58.6
64453;BME280;50813;52.654;6.766;2023-05-15T09:47:06;101296.0;;;19.82;56.43
64453;BME280;50813;52.654;6.766;2023-05-15T09:50:20;101296.0;;;19.72;59.92
64453;BME280;50813;52.654;6.766;2023-05-15T09:51:57;101297.0;;;20.06;61.31
64453;BME280;50813;52.654;6.766;2023-05-15T09:53:34;101300.0;;;20.38;58.97
64453;BME280;50813;52.654;6.766;2023-05-15T09:56:50;101299.0;;;20.5;58.26
64453;BME280;50813;52.654;6.766;2023-05-15T09:58:26;101296.0;;;20.58;57.35
64453;BME280;50813;52.654;6.766;2023-05-15T10:00:03;101296.0;;;20.46;55.84
64453;BME280;50813;52.654;6.766;2023-05-15T10:01:43;101297.0;;;20.64;55.78
64453;BME280;50813;52.654;6.766;2023-05-15T10:04:58;101295.0;;;20.68;55.77
64453;BME280;50813;52.654;6.766;2023-05-15T10:06:35;101294.0;;;20.59;57.77
64453;BME280;50813;52.654;6.766;2023-05-15T10:08:11;101294.0;;;20.83;58.7
64453;BME280;50813;52.654;6.766;2023-05-15T10:11:24;101293.0;;;20.63;57.39
64453;BME280;50813;52.654;6.766;2023-05-15T10:13:01;101296.0;;;20.54;57.77
64453;BME280;50813;52.654;6.766;2023-05-15T10:14:37;101300.0;;;20.69;54.78
64453;BME280;50813;52.654;6.766;2023-05-15T10:16:14;101295.0;;;20.56;56.47
64453;BME280;50813;52.654;6.766;2023-05-15T10:19:28;101299.0;;;20.43;56.12
64453;BME280;50813;52.654;6.766;2023-05-15T10:21:06;101305.0;;;20.48;55.79
64453;BME280;50813;52.654;6.766;2023-05-15T10:22:45;101300.0;;;20.55;52.67
64453;BME280;50813;52.654;6.766;2023-05-15T10:26:09;101296.0;;;20.6;54.89
64453;BME280;50813;52.654;6.766;2023-05-15T10:27:50;101299.0;;;20.72;54.42
64453;BME280;50813;52.654;6.766;2023-05-15T10:29:27;101295.0;;;20.76;48.95
64453;BME280;50813;52.654;6.766;2023-05-15T10:31:04;101296.0;;;20.93;51.99
64453;BME280;50813;52.654;6.766;2023-05-15T10:34:19;101295.0;;;21.04;53.49
64453;BME280;50813;52.654;6.766;2023-05-15T10:35:57;101292.0;;;21.36;55.99
64453;BME280;50813;52.654;6.766;2023-05-15T10:37:34;101288.0;;;21.56;54.23
64453;BME280;50813;52.654;6.766;2023-05-15T10:39:11;101289.0;;;21.69;55.95
64453;BME280;50813;52.654;6.766;2023-05-15T10:42:28;101280.0;;;21.58;50.05
64453;BME280;50813;52.654;6.766;2023-05-15T10:44:04;101281.0;;;21.84;50.2
64453;BME280;50813;52.654;6.766;2023-05-15T10:45:42;101284.0;;;21.98;50.56
64453;BME280;50813;52.654;6.766;2023-05-15T10:48:56;101288.0;;;22.02;53.31
64453;BME280;50813;52.654;6.766;2023-05-15T10:50:35;101285.0;;;21.9;52.87
64453;BME280;50813;52.654;6.766;2023-05-15T10:52:12;101286.0;;;21.86;54.22
64453;BME280;50813;52.654;6.766;2023-05-15T10:53:48;101290.0;;;21.87;54.81
64453;BME280;50813;52.654;6.766;2023-05-15T10:57:02;101287.0;;;21.82;52.85
64453;BME280;50813;52.654;6.766;2023-05-15T10:58:38;101286.0;;;21.78;50.17
64453;BME280;50813;52.654;6.766;2023-05-15T11:00:24;101282.0;;;21.72;51.96
64453;BME280;50813;52.654;6.766;2023-05-15T11:04:06;101285.0;;;21.0;52.26
64453;BME280;50813;52.654;6.766;2023-05-15T11:06:27;101280.0;;;21.19;54.25
64453;BME280;50813;52.654;6.766;2023-05-15T11:08:36;101280.0;;;21.69;55.94
64453;BME280;50813;52.654;6.766;2023-05-15T11:10:46;101278.0;;;21.73;54.45
64453;BME280;50813;52.654;6.766;2023-05-15T11:12:23;101272.0;;;21.91;50.54
64453;BME280;50813;52.654;6.766;2023-05-15T11:14:14;101273.0;;;21.15;53.01
64453;BME280;50813;52.654;6.766;2023-05-15T11:15:50;101266.0;;;21.53;55.74
64453;BME280;50813;52.654;6.766;2023-05-15T11:17:31;101269.0;;;21.77;54.68
64453;BME280;50813;52.654;6.766;2023-05-15T11:19:20;101272.0;;;21.78;54.41